createdAt,value
2022-09-23T00:01:21.594Z,100.00
2022-09-23T00:04:29.781Z,100.00
2022-09-23T00:07:39.937Z,100.00
2022-09-23T00:10:44.705Z,100.00
2022-09-23T00:13:50.154Z,100.00
2022-09-23T00:17:02.131Z,100.00
2022-09-23T00:20:09.902Z,100.00
2022-09-23T00:23:12.619Z,100.00
2022-09-23T00:26:24.713Z,100.00
2022-09-23T00:29:27.091Z,100.00
2022-09-23T00:32:29.452Z,100.00
2022-09-23T00:35:32.019Z,100.00
2022-09-23T00:38:44.760Z,100.00
2022-09-23T00:42:05.435Z,100.00
2022-09-23T00:45:11.975Z,100.00
2022-09-23T00:48:21.345Z,100.00
2022-09-23T00:51:25.135Z,100.00
2022-09-23T00:54:34.929Z,100.00
2022-09-23T00:57:39.114Z,100.00
2022-09-23T01:00:45.023Z,100.00
2022-09-23T01:04:02.966Z,100.00
2022-09-23T01:07:08.249Z,100.00
2022-09-23T01:10:11.987Z,100.00
2022-09-23T01:13:33.866Z,100.00
2022-09-23T01:17:01.770Z,100.00
2022-09-23T01:20:09.222Z,100.00
2022-09-23T01:23:28.493Z,100.00
2022-09-23T01:26:42.974Z,100.00
2022-09-23T01:30:05.243Z,100.00
2022-09-23T01:33:18.948Z,100.00
2022-09-23T01:36:34.812Z,100.00
2022-09-23T01:39:52.895Z,100.00
2022-09-23T01:43:10.065Z,100.00
2022-09-23T01:46:28.382Z,100.00
2022-09-23T01:49:56.118Z,100.00
2022-09-23T01:53:02.793Z,100.00
2022-09-23T01:56:15.931Z,100.00
2022-09-23T01:59:18.101Z,100.00
2022-09-23T02:02:30.371Z,100.00
2022-09-23T02:06:00.529Z,100.00
2022-09-23T02:09:11.746Z,100.00
2022-09-23T02:12:20.371Z,100.00
2022-09-23T02:15:44.427Z,100.00
2022-09-23T02:19:05.972Z,100.00
2022-09-23T02:22:14.093Z,100.00
2022-09-23T02:25:18.654Z,100.00
2022-09-23T02:28:34.294Z,100.00
2022-09-23T02:31:44.170Z,100.00
2022-09-23T02:35:10.370Z,100.00
2022-09-23T02:38:28.322Z,100.00
2022-09-23T02:41:38.009Z,100.00
2022-09-23T02:44:42.855Z,100.00
2022-09-23T02:47:55.504Z,100.00
2022-09-23T02:51:01.297Z,100.00
2022-09-23T02:54:10.316Z,100.00
2022-09-23T02:57:17.285Z,100.00
2022-09-23T03:00:30.343Z,100.00
2022-09-23T03:03:52.767Z,100.00
2022-09-23T03:07:03.169Z,100.00
2022-09-23T03:10:05.180Z,100.00
2022-09-23T03:13:30.555Z,100.00
2022-09-23T03:16:49.064Z,100.00
2022-09-23T03:20:10.494Z,100.00
2022-09-23T03:23:18.086Z,100.00
2022-09-23T03:26:26.108Z,100.00
2022-09-23T03:29:35.336Z,100.00
2022-09-23T03:32:45.990Z,100.00
2022-09-23T03:36:19.836Z,100.00
2022-09-23T03:39:29.552Z,100.00
2022-09-23T03:42:34.214Z,100.00
2022-09-23T03:45:38.254Z,100.00
2022-09-23T03:48:49.386Z,100.00
2022-09-23T03:51:51.448Z,100.00
2022-09-23T03:54:55.312Z,100.00
2022-09-23T03:58:09.063Z,100.00
2022-09-23T04:01:19.706Z,100.00
2022-09-23T04:04:30.781Z,100.00
2022-09-23T04:07:37.950Z,100.00
2022-09-23T04:10:41.653Z,100.00
2022-09-23T04:13:44.218Z,100.00
2022-09-23T04:16:47.047Z,100.00
2022-09-23T04:19:50.316Z,100.00
2022-09-23T04:22:54.546Z,100.00
2022-09-23T04:25:57.137Z,100.00
2022-09-23T04:29:07.028Z,100.00
2022-09-23T04:32:14.260Z,100.00
2022-09-23T04:35:18.786Z,100.00
2022-09-23T04:38:27.721Z,100.00
2022-09-23T04:41:36.608Z,100.00
2022-09-23T04:44:42.493Z,100.00
2022-09-23T04:47:46.424Z,100.00
2022-09-23T04:50:54.969Z,100.00
2022-09-23T04:53:57.838Z,100.00
2022-09-23T04:57:00.378Z,100.00
2022-09-23T05:00:04.637Z,100.00
2022-09-23T05:03:07.486Z,100.00
2022-09-23T05:06:15.831Z,100.00
2022-09-23T05:09:20.157Z,100.00
2022-09-23T05:12:34.172Z,100.00
2022-09-23T05:15:46.292Z,100.00
2022-09-23T05:18:48.969Z,100.00
2022-09-23T05:21:52.188Z,100.00
2022-09-23T05:24:56.409Z,100.00
2022-09-23T05:28:06.834Z,100.00
2022-09-23T05:31:09.856Z,100.00
2022-09-23T05:34:22.299Z,100.00
2022-09-23T05:37:26.023Z,100.00
2022-09-23T05:40:29.525Z,100.00
2022-09-23T05:43:36.360Z,100.00
2022-09-23T05:46:39.108Z,100.00
2022-09-23T05:49:58.697Z,100.00
2022-09-23T05:53:02.556Z,100.00
2022-09-23T05:56:16.842Z,99.59
2022-09-23T05:59:28.339Z,91.48
2022-09-23T06:02:36.757Z,89.06
2022-09-23T06:05:47.916Z,84.25
2022-09-23T06:08:56.041Z,79.93
2022-09-23T06:12:01.267Z,82.85
2022-09-23T06:15:08.314Z,89.08
2022-09-23T06:18:14.184Z,91.36
2022-09-23T06:21:26.092Z,94.72
2022-09-23T06:24:34.446Z,96.07
2022-09-23T06:27:41.772Z,95.98
2022-09-23T06:30:58.900Z,97.01
2022-09-23T06:34:11.719Z,95.16
2022-09-23T06:37:32.265Z,92.51
2022-09-23T06:40:47.348Z,72.57
2022-09-23T06:43:58.837Z,68.18
2022-09-23T06:47:01.357Z,54.41
2022-09-23T06:50:04.588Z,44.26
2022-09-23T06:53:08.600Z,41.80
2022-09-23T06:56:13.137Z,43.41
2022-09-23T06:59:20.841Z,52.49
2022-09-23T07:02:24.872Z,58.51
2022-09-23T07:05:31.357Z,64.55
2022-09-23T07:08:36.373Z,66.63
2022-09-23T07:11:39.245Z,69.72
2022-09-23T07:14:42.959Z,72.24
2022-09-23T07:17:49.245Z,72.71
2022-09-23T07:20:52.646Z,71.98
2022-09-23T07:23:58.585Z,73.57
2022-09-23T07:27:03.730Z,72.74
2022-09-23T07:30:07.974Z,73.13
2022-09-23T07:33:26.370Z,72.89
2022-09-23T07:36:33.890Z,70.96
2022-09-23T07:39:40.694Z,71.60
2022-09-23T07:42:43.981Z,73.10
2022-09-23T07:45:47.878Z,70.99
2022-09-23T07:48:51.724Z,70.18
2022-09-23T07:51:55.623Z,72.57
2022-09-23T07:54:59.386Z,70.10
2022-09-23T07:58:04.043Z,67.35
2022-09-23T08:01:09.155Z,70.43
2022-09-23T08:04:23.151Z,66.35
2022-09-23T08:07:26.310Z,66.11
2022-09-23T08:10:29.913Z,66.11
2022-09-23T08:13:33.853Z,66.68
2022-09-23T08:16:37.198Z,65.40
2022-09-23T08:19:42.489Z,66.25
2022-09-23T08:22:50.765Z,66.79
2022-09-23T08:26:01.340Z,65.91
2022-09-23T08:29:04.433Z,69.55
2022-09-23T08:32:06.946Z,66.26
2022-09-23T08:35:12.932Z,64.69
2022-09-23T08:38:16.479Z,65.38
2022-09-23T08:41:32.055Z,63.96
2022-09-23T08:44:40.691Z,63.69
2022-09-23T08:47:44.496Z,63.26
2022-09-23T08:50:54.383Z,64.25
2022-09-23T08:53:58.617Z,64.36
2022-09-23T08:57:02.870Z,65.65
2022-09-23T09:00:05.918Z,65.25
2022-09-23T09:03:20.067Z,64.56
2022-09-23T09:06:36.214Z,64.15
2022-09-23T09:09:54.552Z,63.98
2022-09-23T09:13:36.934Z,65.27
2022-09-23T09:17:02.688Z,63.85
2022-09-23T09:20:19.776Z,65.54
2022-09-23T09:23:23.611Z,62.74
2022-09-23T09:26:36.954Z,64.99
2022-09-23T09:29:43.114Z,64.20
2022-09-23T09:32:55.732Z,62.27
2022-09-23T09:36:01.571Z,65.88
2022-09-23T09:39:04.156Z,60.71
2022-09-23T09:42:08.034Z,63.21
2022-09-23T09:45:20.087Z,61.29
2022-09-23T09:48:28.183Z,57.62
2022-09-23T09:51:31.470Z,58.40
2022-09-23T09:54:35.521Z,60.41
2022-09-23T09:57:43.253Z,61.65
2022-09-23T10:00:47.049Z,62.72
2022-09-23T10:03:54.308Z,60.86
2022-09-23T10:07:17.166Z,62.21
2022-09-23T10:10:32.288Z,61.53
2022-09-23T10:13:36.585Z,59.47
2022-09-23T10:16:43.137Z,57.95
2022-09-23T10:19:50.948Z,55.49
2022-09-23T10:22:53.743Z,57.16
2022-09-23T10:26:01.857Z,55.61
2022-09-23T10:29:20.521Z,54.05
2022-09-23T10:32:30.499Z,55.35
2022-09-23T10:35:35.200Z,55.95
2022-09-23T10:38:38.810Z,57.18
2022-09-23T10:42:06.069Z,55.45
2022-09-23T10:45:47.216Z,55.92
2022-09-23T10:48:57.800Z,55.39
2022-09-23T10:52:00.361Z,54.60
2022-09-23T10:55:09.097Z,54.95
2022-09-23T10:58:11.665Z,54.40
2022-09-23T11:01:21.976Z,55.80
2022-09-23T11:04:42.471Z,56.76
2022-09-23T11:07:45.412Z,60.68
2022-09-23T11:10:48.824Z,56.49
2022-09-23T11:13:59.448Z,57.02
2022-09-23T11:17:15.018Z,56.96
2022-09-23T11:20:28.580Z,58.02
2022-09-23T11:23:33.237Z,58.57
2022-09-23T11:26:45.514Z,58.33
2022-09-23T11:29:48.238Z,54.92
2022-09-23T11:32:52.200Z,53.96
2022-09-23T11:36:01.893Z,55.16
2022-09-23T11:39:15.576Z,54.40
2022-09-23T11:42:29.052Z,52.88
2022-09-23T11:45:35.488Z,52.76
2022-09-23T11:48:41.581Z,55.24
2022-09-23T11:52:03.834Z,53.23
2022-09-23T11:55:23.225Z,55.72
2022-09-23T11:58:34.864Z,56.82
2022-09-23T12:01:45.600Z,57.26
2022-09-23T12:05:09.052Z,56.55
2022-09-23T12:08:33.435Z,56.36
2022-09-23T12:11:53.609Z,59.72
2022-09-23T12:15:00.814Z,59.79
2022-09-23T12:18:12.921Z,60.18
2022-09-23T12:21:49.068Z,60.10
2022-09-23T12:25:10.935Z,60.48
2022-09-23T12:28:19.862Z,57.58
2022-09-23T12:31:31.840Z,56.08
2022-09-23T12:34:48.555Z,56.10
2022-09-23T12:37:52.367Z,55.41
2022-09-23T12:40:56.783Z,56.28
2022-09-23T12:44:02.923Z,56.75
2022-09-23T12:47:32.382Z,55.36
2022-09-23T12:50:52.780Z,54.78
2022-09-23T12:53:57.114Z,52.58
2022-09-23T12:57:00.711Z,53.92
2022-09-23T13:00:07.050Z,54.29
2022-09-23T13:03:32.667Z,52.97
2022-09-23T13:06:56.758Z,52.22
2022-09-23T13:10:17.878Z,53.31
2022-09-23T13:13:23.619Z,56.35
2022-09-23T13:16:39.091Z,54.65
2022-09-23T13:19:43.774Z,53.58
2022-09-23T13:22:54.509Z,55.42
2022-09-23T13:26:00.080Z,53.14
2022-09-23T13:29:03.897Z,54.01
2022-09-23T13:32:13.431Z,53.19
2022-09-23T13:35:19.277Z,50.35
2022-09-23T13:38:27.013Z,48.51
2022-09-23T13:41:29.398Z,53.93
2022-09-23T13:44:32.821Z,55.27
2022-09-23T13:47:37.017Z,54.50
2022-09-23T13:50:44.854Z,51.94
2022-09-23T13:53:54.049Z,54.45
2022-09-23T13:56:57.992Z,49.69
2022-09-23T14:00:02.035Z,54.29
2022-09-23T14:03:25.040Z,51.29
2022-09-23T14:06:31.311Z,54.34
2022-09-23T14:09:36.900Z,50.09
2022-09-23T14:12:40.076Z,52.34
2022-09-23T14:15:47.130Z,53.79
2022-09-23T14:18:51.685Z,55.45
2022-09-23T14:21:56.668Z,58.90
2022-09-23T14:25:00.015Z,59.59
2022-09-23T14:28:03.423Z,59.64
2022-09-23T14:31:07.446Z,59.00
2022-09-23T14:34:33.481Z,58.08
2022-09-23T14:37:57.673Z,60.56
2022-09-23T14:41:17.637Z,60.68
2022-09-23T14:44:26.174Z,62.26
2022-09-23T14:47:30.380Z,60.27
2022-09-23T14:50:49.650Z,61.25
2022-09-23T14:53:53.671Z,60.23
2022-09-23T14:56:56.247Z,53.70
2022-09-23T15:00:10.677Z,53.38
2022-09-23T15:03:17.402Z,55.63
2022-09-23T15:06:21.320Z,56.17
2022-09-23T15:09:27.881Z,52.96
2022-09-23T15:12:30.797Z,56.38
2022-09-23T15:15:33.739Z,53.73
2022-09-23T15:18:37.767Z,50.57
2022-09-23T15:21:43.115Z,45.63
2022-09-23T15:24:46.414Z,51.07
2022-09-23T15:27:56.384Z,44.89
2022-09-23T15:30:58.948Z,47.31
2022-09-23T15:34:02.831Z,47.13
2022-09-23T15:37:05.452Z,47.74
2022-09-23T15:40:16.130Z,47.82
2022-09-23T15:43:23.916Z,49.57
2022-09-23T15:46:27.372Z,49.98
2022-09-23T15:49:41.697Z,48.55
2022-09-23T15:52:45.691Z,48.61
2022-09-23T15:55:50.936Z,50.79
2022-09-23T15:58:54.409Z,52.59
2022-09-23T16:02:01.487Z,51.63
2022-09-23T16:05:07.876Z,52.04
2022-09-23T16:08:10.692Z,52.64
2022-09-23T16:11:20.330Z,53.64
2022-09-23T16:14:22.803Z,54.29
2022-09-23T16:17:25.472Z,53.90
2022-09-23T16:20:33.155Z,54.56
2022-09-23T16:23:40.584Z,54.71
2022-09-23T16:26:46.163Z,55.36
2022-09-23T16:29:48.572Z,55.83
2022-09-23T16:32:52.479Z,56.59
2022-09-23T16:35:57.160Z,57.59
2022-09-23T16:39:00.325Z,58.59
2022-09-23T16:42:03.194Z,59.41
2022-09-23T16:45:09.922Z,60.53
2022-09-23T16:48:12.457Z,62.57
2022-09-23T16:51:18.275Z,62.94
2022-09-23T16:54:23.552Z,64.74
2022-09-23T16:57:25.478Z,64.73
2022-09-23T17:00:46.533Z,64.15
2022-09-23T17:03:49.884Z,66.13
2022-09-23T17:06:58.534Z,67.50
2022-09-23T17:10:00.726Z,69.08
2022-09-23T17:13:09.607Z,71.29
2022-09-23T17:16:23.118Z,72.24
2022-09-23T17:19:26.343Z,72.26
2022-09-23T17:22:29.841Z,74.29
2022-09-23T17:25:34.679Z,74.21
2022-09-23T17:28:37.381Z,75.30
2022-09-23T17:31:40.884Z,74.94
2022-09-23T17:34:44.573Z,75.01
2022-09-23T17:37:48.206Z,75.01
2022-09-23T17:40:56.950Z,74.83
2022-09-23T17:44:01.118Z,78.72
2022-09-23T17:47:06.446Z,79.23
2022-09-23T17:50:15.716Z,78.00
2022-09-23T17:53:18.086Z,77.87
2022-09-23T17:56:25.172Z,78.55
2022-09-23T17:59:28.666Z,79.13
2022-09-23T18:02:31.301Z,79.95
2022-09-23T18:05:38.856Z,81.99
2022-09-23T18:08:43.809Z,82.00
2022-09-23T18:11:47.499Z,83.83
2022-09-23T18:14:54.379Z,83.43
2022-09-23T18:18:01.672Z,84.23
2022-09-23T18:21:05.834Z,85.34
2022-09-23T18:27:35.424Z,85.55
2022-09-23T18:30:38.879Z,85.75
2022-09-23T18:33:43.560Z,85.93
2022-09-23T18:36:46.837Z,85.72
2022-09-23T18:39:50.423Z,86.05
2022-09-23T18:42:55.227Z,87.38
2022-09-23T18:45:58.954Z,88.78
2022-09-23T18:49:20.835Z,87.27
2022-09-23T18:52:23.803Z,87.52
2022-09-23T18:55:30.913Z,89.19
2022-09-23T18:58:33.494Z,88.32
2022-09-23T19:01:35.865Z,89.41
2022-09-23T19:04:38.878Z,91.10
2022-09-23T19:07:41.346Z,91.21
2022-09-23T19:11:00.321Z,91.20
2022-09-23T19:14:07.430Z,92.72
2022-09-23T19:17:10.896Z,93.75
2022-09-23T19:20:14.709Z,93.86
2022-09-23T19:23:18.030Z,93.58
2022-09-23T19:26:26.633Z,94.65
2022-09-23T19:29:32.858Z,95.97
2022-09-23T19:32:35.161Z,95.23
2022-09-23T19:35:46.833Z,93.89
2022-09-23T19:38:53.083Z,94.72
2022-09-23T19:42:04.301Z,97.21
2022-09-23T19:45:09.346Z,97.73
2022-09-23T19:48:11.515Z,98.35
2022-09-23T19:51:14.413Z,98.89
2022-09-23T19:54:21.267Z,98.08
2022-09-23T19:57:27.051Z,98.43
2022-09-23T20:00:29.970Z,98.78
2022-09-23T20:03:37.435Z,97.80
2022-09-23T20:06:42.762Z,99.52
2022-09-23T20:09:47.213Z,99.04
2022-09-23T20:12:56.751Z,100.00
2022-09-23T20:16:07.143Z,100.00
2022-09-23T20:19:12.372Z,100.00
2022-09-23T20:22:33.007Z,100.00
2022-09-23T20:25:56.944Z,100.00
2022-09-23T20:29:01.658Z,100.00
2022-09-23T20:32:04.258Z,100.00
2022-09-23T20:35:11.050Z,100.00
2022-09-23T20:38:18.022Z,100.00
2022-09-23T20:41:20.606Z,100.00
2022-09-23T20:44:24.095Z,100.00
2022-09-23T20:47:27.192Z,100.00
2022-09-23T20:50:29.920Z,100.00
2022-09-23T20:53:33.020Z,100.00
2022-09-23T20:56:35.454Z,100.00
2022-09-23T20:59:42.038Z,100.00
2022-09-23T21:02:45.373Z,100.00
2022-09-23T21:05:48.543Z,100.00
2022-09-23T21:08:56.736Z,100.00
2022-09-23T21:12:00.392Z,100.00
2022-09-23T21:15:03.737Z,100.00
2022-09-23T21:18:13.667Z,100.00
2022-09-23T21:21:29.804Z,100.00
2022-09-23T21:25:16.005Z,100.00
2022-09-23T21:28:07.015Z,100.00
2022-09-23T21:31:20.233Z,100.00
2022-09-23T21:34:27.843Z,100.00
2022-09-23T21:37:30.880Z,100.00
2022-09-23T21:40:51.916Z,100.00
2022-09-23T21:43:57.191Z,100.00
2022-09-23T21:47:01.811Z,100.00
2022-09-23T21:50:06.070Z,100.00
2022-09-23T21:53:13.945Z,100.00
2022-09-23T21:56:22.673Z,100.00
2022-09-23T21:59:26.584Z,100.00
2022-09-23T22:02:29.476Z,100.00
2022-09-23T22:05:35.962Z,100.00
2022-09-23T22:08:40.572Z,100.00
2022-09-23T22:12:07.991Z,100.00
2022-09-23T22:15:11.941Z,100.00
2022-09-23T22:18:15.178Z,100.00
2022-09-23T22:21:22.337Z,100.00
2022-09-23T22:24:28.824Z,100.00
2022-09-23T22:27:32.029Z,100.00
2022-09-23T22:30:53.692Z,100.00
2022-09-23T22:34:01.952Z,100.00
2022-09-23T22:37:05.810Z,100.00
2022-09-23T22:40:16.570Z,100.00
2022-09-23T22:43:22.802Z,100.00
2022-09-23T22:46:27.751Z,100.00
2022-09-23T22:49:32.774Z,100.00
2022-09-23T22:52:35.588Z,100.00
2022-09-23T22:55:38.405Z,100.00
2022-09-23T22:58:43.188Z,100.00
2022-09-23T23:01:47.617Z,100.00
2022-09-23T23:04:50.574Z,100.00
2022-09-23T23:07:59.550Z,100.00
2022-09-23T23:11:11.219Z,100.00
2022-09-23T23:14:17.027Z,100.00
2022-09-23T23:17:19.582Z,100.00
2022-09-23T23:20:25.209Z,100.00
2022-09-23T23:23:28.418Z,100.00
2022-09-23T23:26:34.835Z,100.00
2022-09-23T23:29:39.762Z,100.00
2022-09-23T23:32:45.878Z,100.00
2022-09-23T23:35:58.444Z,100.00
2022-09-23T23:39:02.062Z,100.00
2022-09-23T23:42:05.727Z,100.00
2022-09-23T23:45:10.029Z,100.00
2022-09-23T23:48:14.452Z,100.00
2022-09-23T23:51:19.753Z,100.00
2022-09-23T23:54:25.142Z,100.00
2022-09-23T23:57:29.092Z,100.00
